Leland, IL (60531)

1:04 AM CDT on August 29, 2015 (GMT -0500)
Farm 34 | | Change Station
CLOSE
Current Station
Personal Weather Station
Location: Earlville, IL
Elevation: 699 ft
Nearby Weather Stations

Elev 699 ft 41.59 °N, 88.85 °W | Updated 9 minutes ago

Overcast
Overcast
65.3 °F
Feels Like 65.3 °F
N
4.0
Wind Variable Wind from East
Gusts 9.0 mph

Today
High -- | Low -- °F
--% Chance of Precip.
Yesterday
High -- | Low -- °F
Precip. -- in
6:17 AM 7:33 PM
Full, 100% visible
Pressure 30.07 in
Visibility 7.0 miles
Clouds Scattered Clouds 5500 ft
Dew Point 63 °F
Humidity 91%
Rainfall 0.00 in
Snow Depth Not available.
UV 0 out of 12
Pollen 8.30 out of 12
Air Quality Not available.
Flu Activity Not available.
METAR KARR 290552Z AUTO 10003KT 7SM SCT055 18/16 A3008 RMK AO2 SLP183 T01830161 10222 20178 402220117 50006
Pressure 30.07 in
Visibility 7.0 miles
Clouds Scattered Clouds 5500 ft
Dew Point 63 °F
Humidity 91%
Rainfall 0.00 in
Snow Depth Not available.
UV 0 out of 12
Pollen 8.30 out of 12
Air Quality Not available.
Flu Activity Not available.
METAR KARR 290552Z AUTO 10003KT 7SM SCT055 18/16 A3008 RMK AO2 SLP183 T01830161 10222 20178 402220117 50006

10-Day Weather Forecast

×

Almanac

Astronomy

Aug. 29, 2015 Rise Set
Actual Time
Civil Twilight
Nautical Twilight
Astronomical Twilight
Moon
Length of Visible Light
Length of Day
Tomorrow will be .
, % of the Moon is Illuminated

Today's Extremes

State Highs State Lows

Community

WunderPhotos

Upload Photos

1,850,622 photos uploaded!

WunderBlogs® & News

Nearby

Air Quality

  Air Quality AQ Index Pollutant
Not available.

Snow Depth

Station Depth Elevation

Earthquake Activity

City Distance Mag. Time & Date
Minimum magnitude displayed is 2.5.

Coastal Water Temperatures

Place Temperature

Stations

Nearby Weather Stations

Station Location Temp. Windchill Dew Point Humidity Wind Precip. Elev Updated Type